Whitmore Hot Springs, California
Current Conditions -  °F | °C
As of 12:35 AM on Sunday 26 Oct 2014 (Local Time) from KMMH Reporting Station
Clear Clear  
Wind Chill: 34°   Ceiling: Unl
Heat Index: 41°   Visibility: 10mi
Dew Point: 19°   Wind: 12mph
Humidity: 42%   Direction: 90°E
Pressure: 30.11"   Gusts: NA
Location:  37.63°N, 118.81°W
Report Text: KMMH 260735Z AUTO 09010KT 10SM CLR 05/M07 A3011 RMK AO1
Loading
Personal Weather Stations






























Interactive Weather Map
Tropical Storm Tracking
New forecast layout! Learn more

10-Day Weather Forecast

Advertisements
Track Severe Weather on mobile